Time;durP1;ratioP1;P1;durP2;ratioP2;P2;SDS_P1;SDS_P2;PMS_P1;PMS_P2;Temp;Humidity;BMP_temperature;BMP_pressure;BME280_temperature;BME280_humidity;BME280_pressure;Samples;Min_cycle;Max_cycle;Signal;HPM_P1;HPM_P2
2022/10/04 00:01:46;;;;;;;;;;;10.70;87.50;;;;;;5028087;28;19925;-71
2022/10/04 00:04:15;;;;;;;;;;;10.70;87.50;;;;;;5021193;28;20008;-70
2022/10/04 00:06:45;;;;;;;;;;;10.70;87.50;;;;;;5026538;28;20004;-70
2022/10/04 00:09:15;;;;;;;;;;;10.70;87.60;;;;;;5024523;28;19976;-70
2022/10/04 00:11:50;;;;;;;;;;;10.70;87.50;;;;;;5024570;28;19940;-71
2022/10/04 00:14:25;;;;;;;;;;;10.70;87.40;;;;;;5020544;28;19929;-69
2022/10/04 00:16:52;;;;;;;;;;;10.60;87.40;;;;;;5014253;28;19925;-71
2022/10/04 00:19:36;;;;;;;;;;;10.60;87.50;;;;;;5024214;28;19936;-68
2022/10/04 00:22:13;;;;;;;;;;;10.60;87.40;;;;;;5024691;28;19934;-71
2022/10/04 00:24:55;;;;;;;;;;;10.60;87.50;;;;;;5026668;28;19932;-68
2022/10/04 00:27:24;;;;;;;;;;;10.60;87.30;;;;;;5025292;28;19969;-70
2022/10/04 00:30:06;;;;;;;;;;;10.60;87.30;;;;;;5039073;28;19936;-69
2022/10/04 00:32:45;;;;;;;;;;;10.50;87.30;;;;;;5024426;28;19925;-69
2022/10/04 00:35:27;;;;;;;;;;;10.50;87.30;;;;;;5038771;28;19928;-70
2022/10/04 00:37:56;;;;;;;;;;;10.50;87.20;;;;;;5042799;28;19936;-70
2022/10/04 00:40:25;;;;;;;;;;;10.50;87.10;;;;;;5042371;28;19929;-70
2022/10/04 00:42:55;;;;;;;;;;;10.50;87.00;;;;;;5044796;28;19925;-69
2022/10/04 00:45:26;;;;;;;;;;;10.50;87.00;;;;;;5029989;28;20279;-69
2022/10/04 00:48:19;;;;;;;;;;;10.50;87.10;;;;;;5037519;28;19933;-70
2022/10/04 00:50:54;;;;;;;;;;;10.50;87.00;;;;;;5011159;28;20014;-70
2022/10/04 00:53:36;;;;;;;;;;;10.40;87.00;;;;;;5034091;28;19937;-69
2022/10/04 00:56:04;;;;;;;;;;;10.50;87.00;;;;;;5042421;28;19929;-70
2022/10/04 00:58:36;;;;;;;;;;;10.40;86.80;;;;;;5045005;28;20294;-70
2022/10/04 01:01:03;;;;;;;;;;;10.50;86.80;;;;;;5045813;28;19937;-69
2022/10/04 01:03:33;;;;;;;;;;;10.40;86.60;;;;;;5051657;28;19925;-70
2022/10/04 01:06:04;;;;;;;;;;;10.40;86.70;;;;;;5051916;28;19932;-71
2022/10/04 01:08:34;;;;;;;;;;;10.40;86.60;;;;;;5049432;28;19935;-70
2022/10/04 01:11:03;;;;;;;;;;;10.40;86.50;;;;;;5048840;28;19928;-69
2022/10/04 01:13:31;;;;;;;;;;;10.30;86.70;;;;;;5048384;28;21325;-69
2022/10/04 01:16:01;;;;;;;;;;;10.30;86.70;;;;;;5048244;28;19929;-70
2022/10/04 01:18:29;;;;;;;;;;;10.30;86.80;;;;;;5035708;28;20446;-72
2022/10/04 01:20:58;;;;;;;;;;;10.40;86.80;;;;;;5049249;28;19931;-71
2022/10/04 01:23:32;;;;;;;;;;;10.40;86.80;;;;;;5036434;28;19940;-70
2022/10/04 01:26:00;;;;;;;;;;;10.40;86.90;;;;;;5050188;28;19925;-70
2022/10/04 01:28:28;;;;;;;;;;;10.40;86.80;;;;;;5049475;28;19929;-70
2022/10/04 01:30:54;;;;;;;;;;;10.40;86.60;;;;;;5051751;28;20031;-69
2022/10/04 01:33:23;;;;;;;;;;;10.40;86.60;;;;;;5047950;28;20311;-71
2022/10/04 01:35:50;;;;;;;;;;;10.30;86.50;;;;;;5049335;28;19991;-71
2022/10/04 01:38:20;;;;;;;;;;;10.30;86.40;;;;;;5043575;28;20052;-70
2022/10/04 01:40:50;;;;;;;;;;;10.30;86.20;;;;;;5051529;28;20317;-72
2022/10/04 01:43:21;;;;;;;;;;;10.30;86.20;;;;;;5050998;28;20503;-71
2022/10/04 01:45:51;;;;;;;;;;;10.20;86.20;;;;;;5049302;28;19925;-72
2022/10/04 01:48:21;;;;;;;;;;;10.10;86.40;;;;;;5052476;28;19933;-71
2022/10/04 01:50:54;;;;;;;;;;;10.20;86.40;;;;;;5049145;28;19929;-71
2022/10/04 01:53:23;;;;;;;;;;;10.10;86.60;;;;;;5051085;28;20290;-72
2022/10/04 01:55:53;;;;;;;;;;;10.10;86.60;;;;;;5048556;28;19925;-72
2022/10/04 01:58:22;;;;;;;;;;;10.10;86.80;;;;;;5031242;28;19932;-71
2022/10/04 02:00:53;;;;;;;;;;;10.10;86.80;;;;;;5036818;28;19928;-71
2022/10/04 02:03:23;;;;;;;;;;;10.00;86.80;;;;;;5045239;28;19929;-70
2022/10/04 02:05:56;;;;;;;;;;;10.10;86.80;;;;;;5046844;28;19925;-71
2022/10/04 02:08:25;;;;;;;;;;;10.10;86.80;;;;;;5040506;28;19925;-72
2022/10/04 02:10:53;;;;;;;;;;;10.10;86.90;;;;;;5041440;28;19936;-71
2022/10/04 02:13:24;;;;;;;;;;;10.10;87.00;;;;;;5041295;28;20417;-71
2022/10/04 02:15:51;;;;;;;;;;;10.00;87.00;;;;;;5041243;28;20024;-71
2022/10/04 02:18:19;;;;;;;;;;;10.10;87.00;;;;;;5040030;28;19939;-71
2022/10/04 02:20:47;;;;;;;;;;;10.10;86.90;;;;;;5037836;28;19929;-69
2022/10/04 02:23:16;;;;;;;;;;;10.00;86.90;;;;;;5045219;28;19994;-70
2022/10/04 02:25:43;;;;;;;;;;;10.00;86.90;;;;;;5048817;28;19929;-70
2022/10/04 02:28:17;;;;;;;;;;;10.00;86.90;;;;;;5044345;28;19931;-70
2022/10/04 02:32:56;;;;;;;;;;;10.00;86.90;;;;;;5030500;28;20020;-70
2022/10/04 02:33:31;;;;;;;;;;;10.00;86.90;;;;;;5047455;28;19933;-70
2022/10/04 02:35:58;;;;;;;;;;;10.00;86.90;;;;;;5043359;28;19960;-71
2022/10/04 02:38:29;;;;;;;;;;;9.90;87.00;;;;;;5044285;28;19971;-69
2022/10/04 02:40:57;;;;;;;;;;;9.90;87.00;;;;;;5048634;28;20003;-70
2022/10/04 02:43:28;;;;;;;;;;;9.90;86.90;;;;;;5025646;28;19925;-70
2022/10/04 02:45:56;;;;;;;;;;;9.90;87.00;;;;;;5044982;28;19933;-71
2022/10/04 02:48:28;;;;;;;;;;;9.90;86.70;;;;;;5049954;28;19971;-70
2022/10/04 02:50:56;;;;;;;;;;;9.80;86.80;;;;;;5047438;28;19925;-70
2022/10/04 02:53:26;;;;;;;;;;;9.70;86.90;;;;;;5034646;28;20035;-71
2022/10/04 02:55:53;;;;;;;;;;;9.80;86.80;;;;;;5039482;28;20153;-69
2022/10/04 02:58:22;;;;;;;;;;;9.80;86.70;;;;;;5040388;28;19928;-72
2022/10/04 03:00:51;;;;;;;;;;;9.80;86.90;;;;;;5046268;28;19929;-70
2022/10/04 03:03:21;;;;;;;;;;;9.80;86.70;;;;;;5041288;28;19933;-71
2022/10/04 03:05:55;;;;;;;;;;;9.70;87.00;;;;;;5036485;28;20438;-72
2022/10/04 03:08:22;;;;;;;;;;;9.70;86.90;;;;;;5038394;28;19936;-72
2022/10/04 03:10:51;;;;;;;;;;;9.70;87.00;;;;;;5030724;28;19929;-71
2022/10/04 03:13:22;;;;;;;;;;;9.70;86.90;;;;;;5037505;28;20481;-72
2022/10/04 03:15:52;;;;;;;;;;;9.70;86.70;;;;;;5046521;28;20675;-71
2022/10/04 03:18:19;;;;;;;;;;;9.70;87.00;;;;;;5042223;28;19940;-72
2022/10/04 03:20:47;;;;;;;;;;;9.70;86.60;;;;;;5022887;28;20338;-72
2022/10/04 03:23:15;;;;;;;;;;;9.70;86.60;;;;;;5023972;28;20470;-72
2022/10/04 03:25:45;;;;;;;;;;;9.60;86.80;;;;;;5039232;28;19933;-71
2022/10/04 03:28:29;;;;;;;;;;;9.60;86.90;;;;;;5044088;28;19960;-72
2022/10/04 03:30:58;;;;;;;;;;;9.60;86.80;;;;;;5045376;28;19929;-69
2022/10/04 03:33:27;;;;;;;;;;;9.60;86.80;;;;;;5025568;28;19926;-71
2022/10/04 03:35:54;;;;;;;;;;;9.50;86.80;;;;;;5021961;28;20024;-72
2022/10/04 03:38:22;;;;;;;;;;;9.40;86.90;;;;;;5022560;28;19948;-70
2022/10/04 03:40:52;;;;;;;;;;;9.50;86.90;;;;;;5024870;28;20375;-72
2022/10/04 03:43:20;;;;;;;;;;;9.60;86.90;;;;;;5017635;28;19936;-71
2022/10/04 03:45:47;;;;;;;;;;;9.50;86.70;;;;;;5023404;28;19932;-72
2022/10/04 03:48:18;;;;;;;;;;;9.60;86.70;;;;;;5016009;28;20413;-72
2022/10/04 03:50:46;;;;;;;;;;;9.50;86.70;;;;;;5020735;28;20291;-72
2022/10/04 03:53:16;;;;;;;;;;;9.50;86.70;;;;;;5022842;28;20026;-69
2022/10/04 03:55:44;;;;;;;;;;;9.40;86.80;;;;;;5025508;28;19937;-71
2022/10/04 03:58:12;;;;;;;;;;;9.50;86.80;;;;;;5023832;28;20291;-72
2022/10/04 04:00:43;;;;;;;;;;;9.60;86.50;;;;;;5023391;28;20383;-71
2022/10/04 04:03:15;;;;;;;;;;;9.60;86.50;;;;;;5026153;28;19956;-72
2022/10/04 04:05:44;;;;;;;;;;;9.60;86.40;;;;;;5017477;28;19933;-72
2022/10/04 04:08:13;;;;;;;;;;;9.60;86.40;;;;;;5012959;28;19925;-71
2022/10/04 04:10:43;;;;;;;;;;;9.50;86.50;;;;;;5025166;28;19929;-72
2022/10/04 04:13:15;;;;;;;;;;;9.40;86.50;;;;;;5021925;28;19956;-72
2022/10/04 04:15:44;;;;;;;;;;;9.40;86.60;;;;;;5022057;28;19936;-71
2022/10/04 04:18:13;;;;;;;;;;;9.40;86.50;;;;;;5021669;28;19925;-70
2022/10/04 04:20:41;;;;;;;;;;;9.30;86.50;;;;;;5042046;28;19934;-71
2022/10/04 04:23:12;;;;;;;;;;;9.30;86.70;;;;;;5038286;28;19936;-71
2022/10/04 04:25:40;;;;;;;;;;;9.30;86.70;;;;;;5038834;28;19933;-71
2022/10/04 04:28:15;;;;;;;;;;;9.30;86.80;;;;;;5037570;28;19973;-70
2022/10/04 04:30:45;;;;;;;;;;;9.40;86.80;;;;;;5036678;28;20294;-68
2022/10/04 04:33:14;;;;;;;;;;;9.40;86.70;;;;;;5036737;28;19933;-71
2022/10/04 04:35:41;;;;;;;;;;;9.40;86.60;;;;;;5041103;28;20016;-72
2022/10/04 04:38:20;;;;;;;;;;;9.40;86.80;;;;;;5041924;28;19975;-70
2022/10/04 04:40:47;;;;;;;;;;;9.30;86.90;;;;;;5039562;28;19933;-71
2022/10/04 04:43:18;;;;;;;;;;;9.30;86.80;;;;;;5039594;28;19925;-71
2022/10/04 04:45:47;;;;;;;;;;;9.30;86.70;;;;;;5034288;28;19991;-71
2022/10/04 04:48:16;;;;;;;;;;;9.40;86.50;;;;;;5036863;28;19948;-71
2022/10/04 04:50:47;;;;;;;;;;;9.40;86.70;;;;;;5041348;28;19935;-71
2022/10/04 04:53:16;;;;;;;;;;;9.40;86.70;;;;;;5035546;28;20033;-72
2022/10/04 04:55:46;;;;;;;;;;;9.40;86.40;;;;;;5037977;28;19936;-73
2022/10/04 04:58:14;;;;;;;;;;;9.40;86.60;;;;;;5042831;28;20392;-72
2022/10/04 05:00:41;;;;;;;;;;;9.30;86.60;;;;;;5043165;28;19931;-72
2022/10/04 05:03:17;;;;;;;;;;;9.30;86.60;;;;;;5040607;28;20027;-71
2022/10/04 05:05:45;;;;;;;;;;;9.30;86.60;;;;;;5043405;28;21113;-72
2022/10/04 05:08:14;;;;;;;;;;;9.30;86.50;;;;;;5041781;28;19925;-71
2022/10/04 05:10:42;;;;;;;;;;;9.30;86.50;;;;;;5042743;28;20378;-69
2022/10/04 05:13:12;;;;;;;;;;;9.30;86.60;;;;;;5034552;28;19933;-72
2022/10/04 05:15:40;;;;;;;;;;;9.30;86.60;;;;;;5038255;28;19939;-71
2022/10/04 05:18:27;;;;;;;;;;;9.30;86.50;;;;;;5038546;28;19937;-69
2022/10/04 05:20:54;;;;;;;;;;;9.30;86.50;;;;;;5044299;28;19940;-72
2022/10/04 05:23:21;;;;;;;;;;;9.30;86.40;;;;;;5037401;28;19929;-70
2022/10/04 05:25:51;;;;;;;;;;;9.20;86.50;;;;;;5039514;28;19929;-71
2022/10/04 05:28:19;;;;;;;;;;;9.20;86.50;;;;;;5035082;28;19936;-71
2022/10/04 05:30:49;;;;;;;;;;;9.20;86.50;;;;;;5033544;28;19933;-71
2022/10/04 05:33:21;;;;;;;;;;;9.20;86.50;;;;;;5035909;28;19929;-72
2022/10/04 05:35:56;;;;;;;;;;;9.20;86.50;;;;;;5037966;28;19980;-72
2022/10/04 05:38:26;;;;;;;;;;;9.20;86.40;;;;;;5031279;28;19936;-72
2022/10/04 05:40:56;;;;;;;;;;;9.20;86.40;;;;;;5021041;28;19935;-72
2022/10/04 05:43:29;;;;;;;;;;;9.20;86.30;;;;;;5039494;28;20012;-71
2022/10/04 05:46:19;;;;;;;;;;;9.20;86.40;;;;;;5041230;28;19982;-72
2022/10/04 05:48:48;;;;;;;;;;;9.20;86.50;;;;;;5028745;28;20314;-71
2022/10/04 05:51:18;;;;;;;;;;;9.20;86.60;;;;;;5041700;28;19937;-72
2022/10/04 05:53:45;;;;;;;;;;;9.30;86.50;;;;;;5041578;28;20546;-71
2022/10/04 05:56:19;;;;;;;;;;;9.30;86.40;;;;;;5045526;28;20452;-70
2022/10/04 05:58:55;;;;;;;;;;;9.30;86.30;;;;;;5040927;28;19935;-70
2022/10/04 06:01:26;;;;;;;;;;;9.30;86.30;;;;;;5041297;28;19990;-72
2022/10/04 06:03:58;;;;;;;;;;;9.40;86.40;;;;;;5042829;28;19925;-73
2022/10/04 06:06:30;;;;;;;;;;;9.30;86.50;;;;;;5029931;28;19929;-72
2022/10/04 06:09:05;;;;;;;;;;;9.30;86.50;;;;;;5020726;28;19932;-71
2022/10/04 06:11:39;;;;;;;;;;;9.30;86.40;;;;;;5030507;28;19925;-71
2022/10/04 06:14:17;;;;;;;;;;;9.30;86.40;;;;;;5014918;28;19933;-69
2022/10/04 06:16:53;;;;;;;;;;;9.30;86.30;;;;;;5022896;28;19929;-71
2022/10/04 06:19:37;;;;;;;;;;;9.40;86.30;;;;;;5013681;28;19952;-72
2022/10/04 06:22:11;;;;;;;;;;;9.40;86.10;;;;;;5022379;28;19947;-71
2022/10/04 06:24:40;;;;;;;;;;;9.40;86.00;;;;;;5025063;28;19929;-71
2022/10/04 06:27:10;;;;;;;;;;;9.40;85.90;;;;;;5016445;28;19956;-71
2022/10/04 06:29:40;;;;;;;;;;;9.40;85.90;;;;;;5021575;28;19929;-72
2022/10/04 06:32:22;;;;;;;;;;;9.40;85.90;;;;;;5009945;28;19925;-72
2022/10/04 06:35:04;;;;;;;;;;;9.50;86.00;;;;;;5031361;28;20026;-69
2022/10/04 06:37:39;;;;;;;;;;;9.40;85.90;;;;;;5039305;28;20397;-71
2022/10/04 06:40:19;;;;;;;;;;;9.50;86.10;;;;;;5048608;28;19925;-71
2022/10/04 06:43:01;;;;;;;;;;;9.50;86.10;;;;;;5044372;28;20013;-71
2022/10/04 06:45:36;;;;;;;;;;;9.50;86.00;;;;;;5039313;28;20286;-72
2022/10/04 06:48:14;;;;;;;;;;;9.50;85.90;;;;;;5045362;28;19924;-72
2022/10/04 06:50:47;;;;;;;;;;;9.50;86.00;;;;;;5043093;28;19929;-71
2022/10/04 06:53:24;;;;;;;;;;;9.50;86.10;;;;;;5030459;28;21472;-71
2022/10/04 06:56:05;;;;;;;;;;;9.60;86.10;;;;;;5039267;28;19933;-72
2022/10/04 06:58:46;;;;;;;;;;;9.60;86.10;;;;;;5042116;28;19929;-70
2022/10/04 07:01:19;;;;;;;;;;;9.70;86.20;;;;;;5040616;28;19924;-71
2022/10/04 07:03:49;;;;;;;;;;;9.70;86.00;;;;;;5041263;28;19932;-71
2022/10/04 07:06:21;;;;;;;;;;;9.70;86.00;;;;;;5044728;28;19931;-71
2022/10/04 07:08:49;;;;;;;;;;;9.70;86.00;;;;;;5039601;28;19924;-72
2022/10/04 07:11:20;;;;;;;;;;;9.70;85.90;;;;;;5045397;28;19929;-71
2022/10/04 07:13:55;;;;;;;;;;;9.80;85.90;;;;;;5041896;28;19929;-69
2022/10/04 07:16:32;;;;;;;;;;;9.70;85.80;;;;;;5039795;28;20015;-70
2022/10/04 07:19:07;;;;;;;;;;;9.80;85.80;;;;;;5044600;28;19924;-73
2022/10/04 07:21:36;;;;;;;;;;;9.90;85.90;;;;;;5037428;28;19925;-71
2022/10/04 07:24:05;;;;;;;;;;;9.90;85.50;;;;;;5034938;28;20011;-69
2022/10/04 07:26:36;;;;;;;;;;;9.90;85.80;;;;;;5047609;28;19982;-72
2022/10/04 07:29:20;;;;;;;;;;;9.90;85.70;;;;;;5041845;28;19947;-70
2022/10/04 07:31:51;;;;;;;;;;;9.90;85.70;;;;;;5039791;28;19928;-69
2022/10/04 07:34:21;;;;;;;;;;;9.90;85.70;;;;;;5002533;28;20919;-71
2022/10/04 07:36:49;;;;;;;;;;;9.90;85.80;;;;;;5038824;28;19936;-72
2022/10/04 07:39:17;;;;;;;;;;;9.90;85.70;;;;;;5036461;28;19978;-72
2022/10/04 07:41:47;;;;;;;;;;;9.90;85.70;;;;;;5038932;28;20379;-70
2022/10/04 07:44:17;;;;;;;;;;;9.90;85.80;;;;;;5035806;28;20007;-72
2022/10/04 07:46:46;;;;;;;;;;;10.00;85.90;;;;;;5036207;28;19925;-71
2022/10/04 07:49:15;;;;;;;;;;;10.00;85.70;;;;;;5044582;28;19956;-71
2022/10/04 07:51:45;;;;;;;;;;;10.00;85.70;;;;;;5039809;28;19937;-72
2022/10/04 07:54:16;;;;;;;;;;;10.00;85.80;;;;;;5021265;28;20375;-70
2022/10/04 07:56:46;;;;;;;;;;;10.10;85.60;;;;;;5017203;28;19932;-71
2022/10/04 07:59:22;;;;;;;;;;;10.10;86.00;;;;;;5017072;28;19933;-71
2022/10/04 08:01:54;;;;;;;;;;;10.10;86.10;;;;;;5024337;28;19933;-62
2022/10/04 08:04:29;;;;;;;;;;;10.00;86.20;;;;;;5019259;28;19929;-65
2022/10/04 08:06:58;;;;;;;;;;;10.00;86.30;;;;;;5025942;28;19987;-65
2022/10/04 08:09:31;;;;;;;;;;;10.10;86.10;;;;;;5019544;28;19933;-65
2022/10/04 08:12:02;;;;;;;;;;;10.10;85.90;;;;;;5023877;28;20367;-71
2022/10/04 08:14:36;;;;;;;;;;;10.20;85.90;;;;;;5020761;28;19995;-71
2022/10/04 08:17:11;;;;;;;;;;;10.20;86.00;;;;;;5021167;28;19929;-71
2022/10/04 08:19:44;;;;;;;;;;;10.20;86.20;;;;;;5021406;28;20299;-72
2022/10/04 08:22:16;;;;;;;;;;;10.30;86.20;;;;;;5019021;28;19925;-71
2022/10/04 08:24:49;;;;;;;;;;;10.40;86.10;;;;;;5021701;28;19934;-71
2022/10/04 08:27:23;;;;;;;;;;;10.30;86.30;;;;;;5013415;28;19933;-70
2022/10/04 08:30:00;;;;;;;;;;;10.40;86.10;;;;;;5024361;28;19925;-70
2022/10/04 08:32:43;;;;;;;;;;;10.40;86.00;;;;;;5024068;28;19936;-70
2022/10/04 08:35:28;;;;;;;;;;;10.60;86.00;;;;;;5019351;28;19940;-72
2022/10/04 08:38:03;;;;;;;;;;;10.60;86.10;;;;;;5025790;28;19941;-70
2022/10/04 08:40:49;;;;;;;;;;;10.70;86.40;;;;;;5013479;28;19925;-71
2022/10/04 08:43:34;;;;;;;;;;;10.90;86.70;;;;;;5017506;28;19931;-72
2022/10/04 08:46:28;;;;;;;;;;;11.10;86.50;;;;;;5013100;28;19948;-70
2022/10/04 08:49:19;;;;;;;;;;;11.20;86.30;;;;;;4976103;28;19925;-70
2022/10/04 08:52:09;;;;;;;;;;;11.40;86.20;;;;;;4974746;28;19933;-70
2022/10/04 08:54:55;;;;;;;;;;;11.60;86.10;;;;;;4980040;28;20399;-71
2022/10/04 08:57:49;;;;;;;;;;;11.70;85.70;;;;;;4980089;28;19932;-72
2022/10/04 09:00:19;;;;;;;;;;;11.90;85.90;;;;;;4953111;28;20004;-70
2022/10/04 09:03:06;;;;;;;;;;;11.90;85.90;;;;;;4983254;28;20024;-71
2022/10/04 09:05:41;;;;;;;;;;;12.10;85.80;;;;;;4961543;28;20268;-71
2022/10/04 09:08:29;;;;;;;;;;;12.20;85.60;;;;;;4976188;28;19941;-69
2022/10/04 09:11:04;;;;;;;;;;;12.20;85.50;;;;;;4982456;28;19934;-70
2022/10/04 09:13:36;;;;;;;;;;;12.30;85.50;;;;;;4984100;28;20464;-71
2022/10/04 09:16:08;;;;;;;;;;;12.40;85.20;;;;;;4979616;28;19950;-73
2022/10/04 09:18:45;;;;;;;;;;;12.60;84.90;;;;;;4985239;28;19929;-72
2022/10/04 09:21:16;;;;;;;;;;;12.70;84.60;;;;;;4986231;28;19930;-72
2022/10/04 09:24:12;;;;;;;;;;;12.90;84.50;;;;;;4983594;28;19934;-71
2022/10/04 09:26:45;;;;;;;;;;;13.00;84.30;;;;;;4942142;29;19927;-70
2022/10/04 09:29:36;;;;;;;;;;;13.10;84.50;;;;;;4971223;28;20032;-71
2022/10/04 09:32:15;;;;;;;;;;;13.20;84.50;;;;;;4983905;28;20442;-71
2022/10/04 09:34:50;;;;;;;;;;;13.30;84.30;;;;;;4984495;28;19931;-73
2022/10/04 09:37:37;;;;;;;;;;;13.40;84.00;;;;;;5002932;28;19926;-70
2022/10/04 09:40:18;;;;;;;;;;;13.50;84.00;;;;;;4984465;28;19936;-71
2022/10/04 09:42:54;;;;;;;;;;;13.60;83.60;;;;;;4990430;28;20335;-72
2022/10/04 09:45:51;;;;;;;;;;;13.70;83.60;;;;;;4976375;28;20285;-72
2022/10/04 09:48:25;;;;;;;;;;;13.70;83.30;;;;;;4971176;28;19934;-70
2022/10/04 09:51:07;;;;;;;;;;;13.80;83.00;;;;;;4993508;28;20422;-70
2022/10/04 09:53:52;;;;;;;;;;;13.80;82.90;;;;;;5004035;28;19929;-71
2022/10/04 09:56:30;;;;;;;;;;;13.80;83.10;;;;;;5007707;28;19929;-73
2022/10/04 09:59:07;;;;;;;;;;;13.90;83.00;;;;;;5004142;28;19934;-72
2022/10/04 10:01:37;;;;;;;;;;;13.90;83.10;;;;;;5002089;28;19935;-70
2022/10/04 10:04:10;;;;;;;;;;;13.90;82.80;;;;;;4999301;28;20295;-70
2022/10/04 10:06:55;;;;;;;;;;;14.10;82.60;;;;;;5007720;28;20036;-70
2022/10/04 10:13:38;;;;;;;;;;;14.20;82.60;;;;;;5000551;28;20332;-71
2022/10/04 10:15:11;;;;;;;;;;;14.30;82.00;;;;;;5003657;28;19934;-69
2022/10/04 10:17:40;;;;;;;;;;;14.40;81.90;;;;;;5006987;28;19941;-70
2022/10/04 10:20:18;;;;;;;;;;;14.40;81.50;;;;;;4995678;28;20488;-70
2022/10/04 10:23:04;;;;;;;;;;;14.50;81.20;;;;;;5006585;28;19929;-70
2022/10/04 10:25:38;;;;;;;;;;;14.60;80.60;;;;;;5022562;28;19933;-70
2022/10/04 10:28:18;;;;;;;;;;;14.70;80.90;;;;;;5021309;28;19975;-69
2022/10/04 10:31:02;;;;;;;;;;;14.70;80.50;;;;;;5018400;28;19984;-72
2022/10/04 10:33:41;;;;;;;;;;;14.90;80.70;;;;;;5026106;28;19972;-71
2022/10/04 10:36:14;;;;;;;;;;;15.00;80.20;;;;;;5021434;28;19936;-71
2022/10/04 10:38:49;;;;;;;;;;;15.00;80.00;;;;;;5019064;28;19971;-70
2022/10/04 10:41:37;;;;;;;;;;;15.10;79.80;;;;;;5027165;28;19933;-71
2022/10/04 10:44:21;;;;;;;;;;;15.10;79.40;;;;;;5016595;28;20007;-71
2022/10/04 10:46:57;;;;;;;;;;;15.10;79.00;;;;;;5030452;28;19971;-72
2022/10/04 10:49:31;;;;;;;;;;;15.20;78.40;;;;;;5039922;28;19925;-72
2022/10/04 10:52:16;;;;;;;;;;;15.30;78.20;;;;;;5046284;28;19932;-71
2022/10/04 10:54:58;;;;;;;;;;;15.30;78.00;;;;;;5041930;28;19929;-72
2022/10/04 10:57:34;;;;;;;;;;;15.30;77.70;;;;;;5045339;28;19925;-72
2022/10/04 11:00:12;;;;;;;;;;;15.40;77.30;;;;;;5043471;28;19924;-71
2022/10/04 11:02:56;;;;;;;;;;;15.40;77.20;;;;;;5042356;28;19925;-71
2022/10/04 11:05:37;;;;;;;;;;;15.50;76.70;;;;;;5041005;28;19935;-71
2022/10/04 11:08:09;;;;;;;;;;;15.50;75.90;;;;;;5027535;28;19951;-72
2022/10/04 11:10:58;;;;;;;;;;;15.60;75.20;;;;;;5046764;28;19976;-71
2022/10/04 11:13:41;;;;;;;;;;;15.60;75.40;;;;;;5018134;28;20019;-71
2022/10/04 11:16:23;;;;;;;;;;;15.70;74.60;;;;;;5024779;28;20330;-71
2022/10/04 11:19:06;;;;;;;;;;;15.70;74.90;;;;;;5021006;28;20007;-70
2022/10/04 11:21:44;;;;;;;;;;;15.70;75.00;;;;;;5017892;28;20371;-72
2022/10/04 11:24:29;;;;;;;;;;;15.70;75.10;;;;;;5026903;28;19925;-72
2022/10/04 11:27:03;;;;;;;;;;;15.70;75.30;;;;;;5023034;28;19926;-70
2022/10/04 11:29:42;;;;;;;;;;;15.80;74.60;;;;;;5021320;28;19934;-71
2022/10/04 11:32:44;;;;;;;;;;;15.80;75.10;;;;;;5018814;28;19933;-70
2022/10/04 11:35:25;;;;;;;;;;;15.80;75.60;;;;;;5022132;28;19933;-72
2022/10/04 11:38:01;;;;;;;;;;;16.00;73.70;;;;;;5020390;28;20248;-70
2022/10/04 11:40:35;;;;;;;;;;;16.00;72.90;;;;;;5020026;28;19976;-69
2022/10/04 11:43:13;;;;;;;;;;;16.00;72.60;;;;;;5020872;28;19929;-70
2022/10/04 11:45:55;;;;;;;;;;;16.10;73.30;;;;;;5023673;28;19925;-73
2022/10/04 11:48:31;;;;;;;;;;;16.00;73.40;;;;;;5021921;28;19996;-70
2022/10/04 11:51:12;;;;;;;;;;;16.00;73.40;;;;;;5024007;28;19975;-71
2022/10/04 11:53:52;;;;;;;;;;;16.00;73.90;;;;;;5024811;28;19929;-71
2022/10/04 11:56:40;;;;;;;;;;;16.00;74.60;;;;;;5021287;28;19929;-71
2022/10/04 11:59:18;;;;;;;;;;;16.10;74.90;;;;;;5019511;28;19925;-70
2022/10/04 12:01:58;;;;;;;;;;;16.10;73.80;;;;;;5014015;28;19930;-70
2022/10/04 12:04:46;;;;;;;;;;;16.20;73.60;;;;;;5012478;28;19933;-70
2022/10/04 12:07:26;;;;;;;;;;;16.10;74.10;;;;;;5019409;28;20396;-71
2022/10/04 12:09:59;;;;;;;;;;;16.10;74.20;;;;;;5024921;28;20279;-69
2022/10/04 12:12:38;;;;;;;;;;;16.10;74.20;;;;;;5023081;28;19979;-71
2022/10/04 12:15:19;;;;;;;;;;;16.10;74.50;;;;;;5022303;28;20047;-70
2022/10/04 12:18:05;;;;;;;;;;;16.10;74.00;;;;;;5039735;28;19931;-71
2022/10/04 12:20:39;;;;;;;;;;;16.10;74.10;;;;;;5043797;28;19925;-70
2022/10/04 12:23:20;;;;;;;;;;;16.10;74.20;;;;;;5043265;28;20031;-70
2022/10/04 12:25:58;;;;;;;;;;;16.10;73.90;;;;;;5038923;28;19925;-70
2022/10/04 12:28:37;;;;;;;;;;;16.10;73.90;;;;;;5020867;28;19941;-70
2022/10/04 12:31:20;;;;;;;;;;;16.10;74.20;;;;;;5021360;28;19929;-69
2022/10/04 12:33:52;;;;;;;;;;;16.10;74.00;;;;;;5018815;28;20305;-70
2022/10/04 12:36:26;;;;;;;;;;;16.10;74.20;;;;;;5023768;28;19979;-70
2022/10/04 12:38:57;;;;;;;;;;;16.10;74.30;;;;;;5014832;28;19932;-68
2022/10/04 12:41:30;;;;;;;;;;;16.10;74.20;;;;;;5024994;28;19929;-68
2022/10/04 12:44:01;;;;;;;;;;;16.00;74.00;;;;;;5024131;28;19971;-70
2022/10/04 12:46:36;;;;;;;;;;;16.10;73.80;;;;;;5026453;28;19934;-71
2022/10/04 12:49:08;;;;;;;;;;;16.10;73.90;;;;;;5029376;28;20405;-69
2022/10/04 12:51:39;;;;;;;;;;;16.10;73.50;;;;;;5047242;28;20300;-71
2022/10/04 12:54:18;;;;;;;;;;;16.10;73.10;;;;;;5041729;28;19935;-69
2022/10/04 12:56:49;;;;;;;;;;;16.10;72.60;;;;;;5033166;28;19933;-69
2022/10/04 12:59:30;;;;;;;;;;;16.10;73.40;;;;;;5044729;28;19941;-70
2022/10/04 13:02:01;;;;;;;;;;;16.10;73.40;;;;;;5034572;28;20361;-70
2022/10/04 13:04:31;;;;;;;;;;;16.10;73.10;;;;;;5027401;28;19929;-69
2022/10/04 13:07:05;;;;;;;;;;;16.10;73.50;;;;;;5036922;28;19935;-69
2022/10/04 13:09:40;;;;;;;;;;;16.00;74.30;;;;;;5035945;28;19974;-70
2022/10/04 13:12:15;;;;;;;;;;;16.00;74.10;;;;;;5038552;28;20306;-70
2022/10/04 13:14:50;;;;;;;;;;;16.00;74.30;;;;;;5037074;28;19929;-70
2022/10/04 13:17:24;;;;;;;;;;;16.00;74.20;;;;;;5038956;28;19990;-70
2022/10/04 13:19:56;;;;;;;;;;;15.90;74.60;;;;;;5036649;28;20336;-68
2022/10/04 13:22:30;;;;;;;;;;;15.90;74.10;;;;;;5018710;28;19933;-70
2022/10/04 13:25:01;;;;;;;;;;;15.90;75.10;;;;;;5038165;28;19947;-69
2022/10/04 13:27:41;;;;;;;;;;;15.90;74.80;;;;;;5022352;28;19929;-69
2022/10/04 13:30:15;;;;;;;;;;;15.90;74.60;;;;;;5018781;28;19932;-71
2022/10/04 13:32:44;;;;;;;;;;;16.00;74.60;;;;;;5021595;28;20004;-69
2022/10/04 13:35:14;;;;;;;;;;;15.90;74.30;;;;;;5015746;28;20008;-71
2022/10/04 13:37:45;;;;;;;;;;;15.90;74.60;;;;;;5016463;28;20400;-70
2022/10/04 13:40:23;;;;;;;;;;;15.80;74.60;;;;;;5019253;28;19925;-68
2022/10/04 13:43:04;;;;;;;;;;;15.90;73.90;;;;;;5015432;28;19933;-69
2022/10/04 13:45:40;;;;;;;;;;;15.90;74.10;;;;;;5008497;28;19932;-70
2022/10/04 13:48:26;;;;;;;;;;;15.90;73.40;;;;;;5014507;28;19929;-70
2022/10/04 13:51:17;;;;;;;;;;;15.90;73.10;;;;;;5022045;28;19974;-69
2022/10/04 13:56:45;;;;;;;;;;;15.90;73.90;;;;;;5022884;28;19959;-72
2022/10/04 13:59:18;;;;;;;;;;;15.90;73.40;;;;;;5024253;28;19925;-70
2022/10/04 14:01:53;;;;;;;;;;;15.80;73.20;;;;;;5017781;28;20020;-69
2022/10/04 14:04:35;;;;;;;;;;;15.80;73.30;;;;;;5013957;28;19925;-71
2022/10/04 14:07:33;;;;;;;;;;;15.90;73.10;;;;;;5011002;28;19924;-70
2022/10/04 14:10:02;;;;;;;;;;;15.90;73.60;;;;;;5000191;28;19964;-68
2022/10/04 14:12:52;;;;;;;;;;;15.80;72.90;;;;;;5025583;28;19937;-69
2022/10/04 14:15:29;;;;;;;;;;;15.80;73.70;;;;;;5048462;28;19928;-71
2022/10/04 14:18:12;;;;;;;;;;;15.80;74.50;;;;;;5040620;28;19947;-69
2022/10/04 14:21:03;;;;;;;;;;;15.80;73.80;;;;;;5038376;28;20029;-70
2022/10/04 14:23:44;;;;;;;;;;;15.70;73.70;;;;;;5020330;28;19933;-70
2022/10/04 14:26:44;;;;;;;;;;;15.80;74.00;;;;;;5022912;28;19967;-70
2022/10/04 14:29:19;;;;;;;;;;;15.70;75.10;;;;;;4969472;28;19926;-70
2022/10/04 14:32:09;;;;;;;;;;;15.80;73.90;;;;;;4986920;28;19937;-69
2022/10/04 14:34:57;;;;;;;;;;;15.80;74.30;;;;;;4990991;28;19925;-70
2022/10/04 14:37:37;;;;;;;;;;;15.70;73.70;;;;;;5045530;28;19925;-69
2022/10/04 14:40:18;;;;;;;;;;;15.70;74.30;;;;;;5030929;28;19926;-71
2022/10/04 14:42:48;;;;;;;;;;;15.70;73.80;;;;;;5032530;28;19941;-70
2022/10/04 14:45:26;;;;;;;;;;;15.70;73.90;;;;;;5033306;28;21341;-70
2022/10/04 14:48:16;;;;;;;;;;;15.70;74.40;;;;;;5043907;28;22351;-70
2022/10/04 14:50:49;;;;;;;;;;;15.70;74.30;;;;;;5022304;28;19994;-70
2022/10/04 14:53:21;;;;;;;;;;;15.70;74.50;;;;;;5019814;28;19940;-71
2022/10/04 14:55:59;;;;;;;;;;;15.70;74.70;;;;;;5006318;28;19934;-69
2022/10/04 14:58:34;;;;;;;;;;;15.70;74.20;;;;;;5017061;28;19947;-70
2022/10/04 15:01:14;;;;;;;;;;;15.80;74.30;;;;;;5025195;28;19925;-72
2022/10/04 15:03:48;;;;;;;;;;;15.90;73.40;;;;;;5022623;28;19975;-68
2022/10/04 15:06:33;;;;;;;;;;;16.00;73.80;;;;;;5037481;28;19935;-72
2022/10/04 15:09:14;;;;;;;;;;;16.00;74.50;;;;;;5033519;28;19925;-70
2022/10/04 15:11:44;;;;;;;;;;;15.90;75.10;;;;;;5032968;28;20178;-71